sim
Sign-in with your pilot id or email,
or register
Callsign
Passwort

Schedule Details

Flight Number: EWG354 (2)
Departure: Cologne Bonn Airport (EDDK) at 07:00
Arrival: London Stansted Airport (EGSS) at 08:15
Route: Eurowings Passenger Schedule. Enter filed route here before submitting Pirep.

Weather Information
Getting current METAR information for EDDK 241450Z 26005KT 9999 FEW023 BKN038 02/M01 Q1000 R14L/190295 R06///99// R14R///99// NOSIG
Getting current METAR information for EGSS 241450Z AUTO 11011KT 1900 -SN BKN004 BKN009 OVC035 01/00 Q0994

Schedule Frequency

Route Map